Time;durP1;ratioP1;P1;durP2;ratioP2;P2;SDS_P1;SDS_P2;PMS_P1;PMS_P2;Temp;Humidity;BMP_temperature;BMP_pressure;BME280_temperature;BME280_humidity;BME280_pressure;Samples;Min_cycle;Max_cycle;Signal;HPM_P1;HPM_P2
2022/04/23 00:00:39;;;;;;;13.80;12.40;;;8.40;88.60;;;6.75;81.41;96780.19;5028379;28;20528;-83
2022/04/23 00:03:06;;;;;;;13.00;11.90;;;8.30;88.80;;;7.05;81.64;96828.66;5042160;28;20520;-83
2022/04/23 00:05:33;;;;;;;14.13;12.90;;;8.30;89.50;;;6.87;81.55;96807.13;5025243;28;20452;-83
2022/04/23 00:08:00;;;;;;;14.00;12.70;;;8.20;89.80;;;6.64;82.04;96787.13;5027869;28;20482;-84
2022/04/23 00:10:27;;;;;;;14.10;12.80;;;8.20;90.20;;;6.80;82.73;96832.19;5028445;28;20545;-84
2022/04/23 00:12:55;;;;;;;14.20;12.90;;;8.10;90.40;;;6.14;82.94;96721.72;5030434;28;20469;-84
2022/04/23 00:15:25;;;;;;;13.30;12.00;;;8.10;90.70;;;6.80;82.73;96828.69;5028663;28;20528;-83
2022/04/23 00:17:52;;;;;;;13.33;12.20;;;8.10;90.90;;;6.75;82.84;96818.63;5024252;28;20502;-82
2022/04/23 00:20:19;;;;;;;13.80;12.53;;;8.10;91.10;;;6.61;83.23;96814.41;5028008;28;20525;-83
2022/04/23 00:22:46;;;;;;;12.53;11.37;;;8.00;91.10;;;6.64;83.62;96812.09;5027683;28;20481;-84
2022/04/23 00:25:13;;;;;;;13.10;11.90;;;8.00;91.40;;;6.65;83.44;96808.34;5026729;28;20511;-85
2022/04/23 00:27:41;;;;;;;13.63;11.80;;;8.00;91.40;;;6.76;83.33;96825.63;5022518;28;20454;-82
2022/04/23 00:30:09;;;;;;;13.97;12.67;;;8.00;91.40;;;6.62;83.92;96834.84;5024136;28;20465;-83
2022/04/23 00:32:37;;;;;;;13.83;12.43;;;7.90;91.40;;;6.56;83.95;96816.91;5027919;28;20508;-83
2022/04/23 00:35:06;;;;;;;13.03;11.73;;;7.90;91.70;;;6.55;84.38;96813.41;5019214;28;20466;-83
2022/04/23 00:37:33;;;;;;;13.60;12.20;;;7.80;91.70;;;6.21;84.49;96768.06;5013309;28;20446;-82
2022/04/23 00:40:00;;;;;;;12.60;11.40;;;7.80;92.00;;;6.56;84.94;96828.47;5025491;28;20442;-83
2022/04/23 00:42:28;;;;;;;14.20;12.80;;;7.80;92.10;;;6.39;84.97;96820.13;5032230;28;20553;-83
2022/04/23 00:44:55;;;;;;;14.07;12.67;;;7.70;92.40;;;6.51;85.04;96823.75;5024691;28;20914;-84
2022/04/23 00:47:22;;;;;;;13.90;12.60;;;7.70;92.70;;;6.43;85.28;96815.97;5027232;28;20536;-83
2022/04/23 00:49:51;;;;;;;12.63;11.53;;;7.70;92.40;;;6.42;85.12;96805.47;5027882;28;20445;-82
2022/04/23 00:52:19;;;;;;;13.40;12.10;;;7.70;92.50;;;6.16;85.07;96784.00;5036790;28;20459;-82
2022/04/23 00:54:46;;;;;;;12.70;11.30;;;7.70;93.00;;;6.31;85.34;96796.28;5026743;28;21904;-83
2022/04/23 00:57:13;;;;;;;11.83;10.80;;;7.70;93.00;;;6.49;85.09;96817.78;5030044;28;20533;-83
2022/04/23 00:59:40;;;;;;;11.43;10.33;;;7.70;92.60;;;6.35;84.99;96809.00;5024623;28;20516;-82
2022/04/23 01:02:08;;;;;;;13.17;11.77;;;7.70;92.90;;;6.30;85.70;96798.13;5026592;28;20570;-82
2022/04/23 01:04:35;;;;;;;12.30;11.10;;;7.60;93.20;;;6.36;85.37;96820.56;5006282;28;20471;-83
2022/04/23 01:07:05;;;;;;;13.30;11.83;;;7.60;93.00;;;6.33;86.10;96818.34;5044547;28;20451;-82
2022/04/23 01:09:32;;;;;;;12.83;11.63;;;7.60;93.10;;;6.30;85.91;96821.47;5024708;28;20469;-83
2022/04/23 01:11:59;;;;;;;12.50;11.30;;;7.60;93.10;;;6.30;85.71;96816.09;5028762;28;20455;-84
2022/04/23 01:14:26;;;;;;;12.60;11.40;;;7.60;93.20;;;5.95;85.77;96775.22;5026425;28;20450;-83
2022/04/23 01:16:53;;;;;;;11.80;10.60;;;7.50;93.40;;;5.95;86.27;96777.91;5026761;28;20454;-83
2022/04/23 01:19:22;;;;;;;13.10;11.80;;;7.50;93.90;;;6.20;86.04;96824.59;5029057;28;20588;-83
2022/04/23 01:21:50;;;;;;;11.27;10.27;;;7.50;93.30;;;6.22;86.48;96826.03;5026537;28;20927;-84
2022/04/23 01:24:18;;;;;;;12.63;11.43;;;7.50;93.50;;;6.18;86.17;96814.09;5034496;28;20544;-84
2022/04/23 01:26:45;;;;;;;11.73;10.63;;;7.50;93.30;;;6.33;85.98;96818.34;5038325;28;20451;-84
2022/04/23 01:29:13;;;;;;;12.40;11.10;;;7.60;93.00;;;6.24;85.47;96823.94;5037313;28;20482;-84
2022/04/23 01:31:39;;;;;;;13.30;12.10;;;7.60;92.90;;;6.22;85.76;96809.94;5035186;28;20975;-85
2022/04/23 01:34:06;;;;;;;13.00;10.70;;;7.50;92.90;;;5.96;85.58;96766.13;5027711;28;20534;-85
2022/04/23 01:36:33;;;;;;;12.27;11.17;;;7.60;92.70;;;5.64;85.08;96696.44;5033887;28;20463;-84
2022/04/23 01:39:02;;;;;;;12.70;11.30;;;7.60;92.80;;;6.40;85.07;96816.41;5021206;28;20524;-82
2022/04/23 01:41:29;;;;;;;10.57;9.57;;;7.70;92.20;;;6.31;84.55;96801.66;5033637;28;20565;-84
2022/04/23 01:43:57;;;;;;;11.80;10.80;;;7.70;92.00;;;6.38;85.11;96823.88;5027065;28;20528;-83
2022/04/23 01:46:24;;;;;;;11.93;10.83;;;7.70;92.00;;;6.14;85.19;96779.88;5034866;28;20449;-85
2022/04/23 01:48:51;;;;;;;12.17;10.97;;;7.70;92.40;;;6.48;84.56;96818.84;5034939;28;20534;-83
2022/04/23 01:51:18;;;;;;;10.80;9.90;;;7.70;91.70;;;6.38;84.66;96824.69;5028353;28;20862;-82
2022/04/23 01:53:45;;;;;;;11.23;10.17;;;7.70;91.80;;;6.44;84.60;96831.03;5032553;28;20540;-82
2022/04/23 01:56:13;;;;;;;11.10;10.00;;;7.70;91.70;;;6.49;84.21;96830.38;5036699;28;20549;-83
2022/04/23 01:58:40;;;;;;;11.13;10.10;;;7.80;91.60;;;6.37;84.69;96839.16;5036395;28;21251;-82
2022/04/23 02:01:07;;;;;;;10.40;9.40;;;7.70;91.60;;;6.15;84.75;96801.13;5032609;28;20501;-82
2022/04/23 02:03:35;;;;;;;11.17;10.17;;;7.70;91.90;;;6.32;84.84;96830.09;5034209;28;21189;-83
2022/04/23 02:06:02;;;;;;;11.27;10.00;;;7.60;92.00;;;6.26;85.07;96836.31;5027637;28;20446;-82
2022/04/23 02:08:29;;;;;;;11.50;10.33;;;7.60;92.10;;;6.22;85.38;96831.41;5035560;28;21003;-84
2022/04/23 02:10:56;;;;;;;12.30;11.17;;;7.50;92.50;;;6.09;85.41;96824.28;5028615;28;20539;-82
2022/04/23 02:13:26;;;;;;;12.23;11.03;;;7.40;92.60;;;6.10;85.44;96833.13;5030502;28;20568;-81
2022/04/23 02:15:53;;;;;;;12.03;10.83;;;7.40;93.10;;;6.10;85.73;96833.13;5027861;28;21024;-82
2022/04/23 02:18:21;;;;;;;12.07;10.87;;;7.40;93.20;;;6.13;86.14;96848.78;5029441;28;21355;-82
2022/04/23 02:20:48;;;;;;;12.10;10.90;;;7.40;93.50;;;5.90;86.10;96844.75;5028858;28;20527;-82
2022/04/23 02:23:15;;;;;;;11.70;10.60;;;7.20;93.10;;;5.80;86.79;96822.94;5030707;28;20537;-81
2022/04/23 02:25:42;;;;;;;11.73;10.63;;;7.20;94.10;;;5.92;87.32;96842.69;5046116;28;20462;-81
2022/04/23 02:28:09;;;;;;;13.63;12.33;;;7.10;94.70;;;5.87;86.78;96844.34;5034809;28;20461;-83
2022/04/23 02:30:38;;;;;;;12.03;10.90;;;7.10;94.40;;;5.89;86.67;96847.66;5028043;28;20479;-81
2022/04/23 02:33:05;;;;;;;11.93;10.73;;;7.10;94.70;;;5.88;86.76;96844.16;5045725;28;20789;-82
2022/04/23 02:35:34;;;;;;;19.07;11.80;;;7.10;94.60;;;5.84;87.15;96832.22;5023336;28;20504;-82
2022/04/23 02:38:01;;;;;;;13.40;12.10;;;7.10;95.10;;;5.66;87.19;96812.28;5028695;28;20450;-79
2022/04/23 02:40:29;;;;;;;13.57;12.30;;;7.10;94.50;;;5.82;86.90;96842.31;5027255;28;20546;-81
2022/04/23 02:42:57;;;;;;;13.03;11.70;;;7.10;94.30;;;5.78;87.22;96841.09;5031594;28;20470;-81
2022/04/23 02:45:25;;;;;;;13.27;11.97;;;7.10;94.30;;;5.74;87.66;96839.91;5023197;28;20449;-81
2022/04/23 02:47:56;;;;;;;12.43;11.27;;;7.00;94.40;;;5.78;87.15;96841.94;5030597;28;20493;-81
2022/04/23 02:50:28;;;;;;;12.97;11.70;;;7.00;94.90;;;5.80;87.05;96842.53;5027519;28;20485;-82
2022/04/23 02:52:57;;;;;;;12.30;11.10;;;7.10;94.80;;;5.75;87.68;96836.19;5037215;28;21000;-80
2022/04/23 02:55:25;;;;;;;12.93;11.70;;;7.00;94.90;;;5.73;87.84;96841.75;5049082;28;20545;-80
2022/04/23 02:57:52;;;;;;;13.63;12.23;;;7.00;95.30;;;5.70;87.81;96842.16;5047618;28;20460;-80
2022/04/23 03:00:20;;;;;;;13.40;11.80;;;7.00;94.90;;;5.44;87.78;96813.63;5029326;28;20502;-81
2022/04/23 03:02:48;;;;;;;13.40;12.10;;;6.90;95.10;;;5.68;87.92;96842.38;5030938;28;21023;-82
2022/04/23 03:05:16;;;;;;;14.07;12.73;;;6.90;95.20;;;5.69;87.71;96840.53;5021760;28;20558;-81
2022/04/23 03:07:44;;;;;;;14.23;12.83;;;6.90;94.80;;;5.70;87.72;96844.84;5025698;28;20453;-82
2022/04/23 03:10:15;;;;;;;14.07;12.70;;;7.00;94.50;;;5.70;87.88;96844.03;5028041;28;20455;-82
2022/04/23 03:12:44;;;;;;;14.57;13.17;;;7.00;94.60;;;5.70;87.64;96841.38;5029254;28;20605;-83
2022/04/23 03:15:15;;;;;;;14.47;12.97;;;7.00;94.40;;;5.56;87.28;96828.03;5031982;28;20501;-83
2022/04/23 03:17:42;;;;;;;15.13;13.73;;;7.00;94.40;;;5.65;87.48;96852.72;5029759;28;20539;-82
2022/04/23 03:20:12;;;;;;;14.83;13.43;;;6.90;94.40;;;5.70;86.85;96844.84;5025396;28;20556;-84
2022/04/23 03:22:41;;;;;;;15.10;13.70;;;7.00;94.60;;;5.41;87.04;96798.00;5033292;28;20953;-82
2022/04/23 03:25:10;;;;;;;16.27;14.67;;;6.90;94.20;;;5.65;87.84;96842.81;5028176;28;20541;-83
2022/04/23 03:27:38;;;;;;;14.07;12.57;;;6.90;94.50;;;5.52;87.17;96818.75;5031628;28;20486;-82
2022/04/23 03:30:07;;;;;;;14.87;13.47;;;6.90;94.40;;;5.60;87.63;96839.94;5036966;28;20449;-83
2022/04/23 03:32:34;;;;;;;16.00;14.30;;;6.90;95.10;;;5.66;86.90;96839.09;5021448;28;20950;-82
2022/04/23 03:35:01;;;;;;;15.33;13.83;;;6.90;94.50;;;5.08;87.57;96747.03;5036473;28;20461;-82
2022/04/23 03:37:28;;;;;;;16.10;13.67;;;6.90;94.30;;;5.51;87.63;96822.44;5031535;28;20527;-85
2022/04/23 03:39:57;;;;;;;15.90;14.30;;;6.90;94.70;;;5.60;87.41;96833.75;5027582;28;20460;-82
2022/04/23 03:42:24;;;;;;;15.93;14.33;;;6.90;94.60;;;5.52;88.09;96829.44;5022108;28;20483;-82
2022/04/23 03:44:51;;;;;;;16.17;14.57;;;6.90;94.80;;;5.39;88.08;96815.09;5027801;28;20450;-82
2022/04/23 03:47:18;;;;;;;17.00;14.70;;;6.80;95.40;;;5.42;87.98;96815.72;5031879;28;20921;-82
2022/04/23 03:49:45;;;;;;;15.90;14.20;;;6.80;95.40;;;5.44;88.47;96829.72;5026649;28;20541;-83
2022/04/23 03:52:12;;;;;;;16.17;14.57;;;6.70;95.60;;;5.38;88.33;96828.69;5029277;28;20974;-84
2022/04/23 03:54:39;;;;;;;16.33;14.63;;;6.70;95.40;;;5.32;88.78;96832.22;5030473;28;20558;-84
2022/04/23 03:57:07;;;;;;;18.50;16.70;;;6.60;96.70;;;5.06;89.81;96799.13;5048240;28;20487;-84
2022/04/23 03:59:35;;;;;;;17.93;16.03;;;6.60;98.10;;;5.39;89.78;96828.50;5042171;28;20442;-83
2022/04/23 04:02:04;;;;;;;18.10;16.20;;;6.60;97.10;;;5.36;88.41;96804.78;5032727;28;20501;-84
2022/04/23 04:04:32;;;;;;;16.80;15.00;;;6.70;96.20;;;5.47;89.04;96837.31;5031256;28;20600;-82
2022/04/23 04:06:59;;;;;;;20.80;18.37;;;6.70;96.20;;;5.55;88.12;96826.38;5026283;28;20468;-83
2022/04/23 04:09:27;;;;;;;19.37;17.37;;;6.80;96.00;;;5.56;88.59;96828.03;5023870;28;20805;-82
2022/04/23 04:12:03;;;;;;;20.33;18.23;;;6.90;95.40;;;5.61;88.22;96827.34;5047418;28;20452;-82
2022/04/23 04:14:34;;;;;;;23.30;19.20;;;6.90;95.80;;;5.51;87.82;96814.41;5023754;28;20454;-82
2022/04/23 04:17:04;;;;;;;21.90;17.60;;;6.90;95.30;;;5.59;88.25;96830.28;5021379;28;20957;-82
2022/04/23 04:19:33;;;;;;;20.73;18.37;;;6.90;95.00;;;5.54;88.62;96824.72;5027615;28;20458;-82
2022/04/23 04:22:03;;;;;;;18.10;16.20;;;6.90;95.30;;;5.56;89.13;96828.03;5061176;28;20473;-84
2022/04/23 04:24:31;;;;;;;22.17;19.10;;;6.90;95.30;;;5.68;87.97;96820.94;5048492;28;20457;-84
2022/04/23 04:27:00;;;;;;;21.10;18.20;;;6.90;95.20;;;5.45;87.70;96793.84;5053208;28;20454;-82
2022/04/23 04:29:27;;;;;;;20.50;17.93;;;7.00;94.60;;;5.61;87.52;96809.44;5029690;28;20445;-80
2022/04/23 04:31:56;;;;;;;21.10;18.90;;;7.00;95.00;;;5.77;87.69;96820.69;5028917;28;20457;-80
2022/04/23 04:34:28;;;;;;;22.43;18.80;;;7.00;94.90;;;5.77;87.39;96818.03;5029129;28;20453;-82
2022/04/23 04:37:04;;;;;;;24.20;20.27;;;7.10;94.60;;;5.83;87.60;96827.88;5036161;28;20457;-81
2022/04/23 04:39:31;;;;;;;22.40;20.13;;;7.10;94.20;;;5.93;86.56;96817.50;5019881;28;20531;-83
2022/04/23 04:41:58;;;;;;;22.63;18.33;;;7.20;94.00;;;5.99;86.50;96817.69;5028119;28;21007;-79
2022/04/23 04:44:25;;;;;;;22.53;19.43;;;7.30;93.60;;;6.06;86.41;96826.56;5025962;28;20662;-82
2022/04/23 04:46:52;;;;;;;25.37;20.10;;;7.30;93.10;;;6.07;86.15;96817.47;5031228;28;20537;-80
2022/04/23 04:49:22;;;;;;;26.90;18.70;;;7.40;93.00;;;6.13;86.02;96835.38;5024412;28;20557;-80
2022/04/23 04:51:49;;;;;;;24.43;20.97;;;7.40;92.90;;;6.24;85.60;96829.31;5029717;28;20454;-81
2022/04/23 04:54:17;;;;;;;19.13;17.10;;;7.50;92.60;;;6.30;85.02;96837.56;5028458;28;20897;-80
2022/04/23 04:56:45;;;;;;;20.43;18.07;;;7.60;92.10;;;6.35;84.82;96830.47;5031459;28;20887;-81
2022/04/23 04:59:12;;;;;;;22.50;20.10;;;7.60;92.20;;;6.23;85.06;96821.50;5030333;28;20873;-82
2022/04/23 05:01:40;;;;;;;21.85;19.40;;;7.60;92.00;;;6.54;84.67;96838.63;5015946;28;20454;-81
2022/04/23 05:04:07;;;;;;;23.60;19.87;;;7.70;92.10;;;6.53;84.51;96853.06;5029915;28;21093;-80
2022/04/23 05:06:35;;;;;;;22.83;20.47;;;7.80;91.40;;;6.56;83.77;96847.25;5031155;28;20459;-80
2022/04/23 05:09:03;;;;;;;23.80;19.40;;;7.90;91.00;;;6.70;83.33;96839.91;5031316;28;20534;-83
2022/04/23 05:11:30;;;;;;;20.87;18.67;;;8.00;90.50;;;6.63;83.14;96821.19;5033958;28;20489;-82
2022/04/23 05:13:57;;;;;;;21.67;19.30;;;8.00;90.10;;;6.76;82.79;96841.75;5029334;28;21013;-82
2022/04/23 05:16:24;;;;;;;20.57;18.47;;;8.00;90.00;;;6.85;82.37;96839.59;5036959;28;20571;-83
2022/04/23 05:18:51;;;;;;;21.80;17.20;;;8.10;90.00;;;6.71;81.76;96790.56;5032247;28;21012;-82
2022/04/23 05:21:18;;;;;;;20.90;18.70;;;8.20;89.80;;;7.17;80.70;96835.97;5036245;28;20469;-81
2022/04/23 05:23:47;;;;;;;20.87;18.70;;;8.30;88.10;;;7.23;80.70;96835.09;5030320;28;20476;-81
2022/04/23 05:26:14;;;;;;;20.90;18.70;;;8.50;87.50;;;7.41;79.70;96833.47;5028923;28;20471;-81
2022/04/23 05:28:41;;;;;;;21.03;18.93;;;8.60;86.10;;;7.55;79.04;96837.63;5032140;28;20482;-83
2022/04/23 05:31:09;;;;;;;20.57;18.37;;;8.80;85.60;;;7.41;78.75;96782.41;5034336;28;20458;-82
2022/04/23 05:33:36;;;;;;;21.23;19.17;;;8.90;84.30;;;7.94;77.52;96840.84;5026045;28;20465;-82
2022/04/23 05:36:06;;;;;;;20.63;18.33;;;9.20;83.50;;;8.14;77.11;96833.56;5050294;28;20532;-83
2022/04/23 05:38:34;;;;;;;21.03;18.83;;;9.40;82.60;;;8.39;75.61;96828.03;5037521;28;20486;-82
2022/04/23 05:41:03;;;;;;;19.07;16.90;;;9.60;81.80;;;8.56;74.98;96832.75;5038246;28;20540;-79
2022/04/23 05:43:31;;;;;;;20.60;18.50;;;9.80;80.40;;;8.50;74.97;96832.66;5038922;28;20685;-81
2022/04/23 05:46:00;;;;;;;21.00;18.80;;;9.80;80.10;;;8.51;75.26;96828.09;5058433;28;20512;-79
2022/04/23 05:48:27;;;;;;;19.60;17.73;;;9.80;80.40;;;8.70;74.55;96836.88;5051275;28;20457;-83
2022/04/23 05:50:54;;;;;;;20.83;18.83;;;9.90;79.90;;;8.46;74.05;96799.16;5051471;28;20454;-80
2022/04/23 05:53:21;;;;;;;21.00;18.80;;;10.00;78.60;;;8.74;73.80;96830.00;5035119;28;20470;-72
2022/04/23 05:55:48;;;;;;;21.30;19.20;;;10.00;78.80;;;9.05;73.09;96817.25;5031754;28;21179;-75
2022/04/23 05:58:16;;;;;;;19.80;17.83;;;10.20;78.20;;;9.16;72.44;96839.00;5033108;28;20466;-72
2022/04/23 06:00:43;;;;;;;20.10;18.07;;;10.40;77.80;;;9.13;71.72;96807.16;5028713;28;20558;-72
2022/04/23 06:03:11;;;;;;;20.60;18.50;;;10.50;77.40;;;9.00;72.14;96833.28;5029358;28;20889;-74
2022/04/23 06:05:39;;;;;;;20.97;18.97;;;10.40;77.00;;;9.12;72.22;96827.06;5033118;28;20466;-74
2022/04/23 06:08:06;;;;;;;22.97;20.10;;;10.30;77.20;;;9.00;72.99;96833.28;5035328;28;20451;-74
2022/04/23 06:10:33;;;;;;;22.43;20.10;;;10.30;77.10;;;9.09;71.75;96822.16;5033049;28;21024;-75
2022/04/23 06:13:00;;;;;;;21.87;19.57;;;10.40;77.00;;;8.98;72.72;96827.31;5033308;28;20856;-73
2022/04/23 06:15:29;;;;;;;21.83;19.53;;;10.30;77.30;;;9.23;72.01;96818.16;5030254;28;20532;-76
2022/04/23 06:17:56;;;;;;;20.67;18.73;;;10.50;77.20;;;9.57;70.98;96833.69;5025999;28;20610;-71
2022/04/23 06:20:23;;;;;;;21.50;19.23;;;10.70;76.80;;;9.65;70.28;96827.91;5027203;28;20993;-72
2022/04/23 06:22:50;;;;;;;19.93;18.00;;;10.80;76.10;;;9.87;69.62;96829.97;5037096;28;20504;-76
2022/04/23 06:25:17;;;;;;;20.70;18.53;;;11.00;76.00;;;9.90;69.77;96830.31;5046961;28;20930;-69
2022/04/23 06:27:44;;;;;;;20.10;17.90;;;11.20;75.50;;;10.07;69.71;96826.84;5031473;28;20450;-80
2022/04/23 06:30:11;;;;;;;20.47;18.30;;;11.30;75.00;;;10.13;68.67;96828.59;5029229;28;20458;-70
2022/04/23 06:32:40;;;;;;;20.67;18.47;;;11.40;74.70;;;10.14;67.65;96788.91;5032011;28;20943;-72
2022/04/23 06:35:08;;;;;;;21.37;19.20;;;11.50;74.50;;;10.57;66.82;96828.00;5024490;28;20448;-69
2022/04/23 06:37:40;;;;;;;20.97;18.70;;;11.70;74.00;;;10.39;66.63;96775.06;5030607;28;20494;-71
2022/04/23 06:40:10;;;;;;;19.50;17.50;;;11.90;73.70;;;11.01;65.95;96832.78;5026176;28;20876;-70
2022/04/23 06:42:38;;;;;;;21.70;18.47;;;12.10;73.30;;;10.87;65.96;96829.56;5020822;28;20467;-70
2022/04/23 06:45:06;;;;;;;21.30;18.53;;;12.10;72.50;;;10.93;65.94;96825.06;5024689;28;20548;-70
2022/04/23 06:47:33;;;;;;;19.00;17.07;;;12.10;72.70;;;11.09;65.29;96825.28;5040774;28;20984;-71
2022/04/23 06:50:02;;;;;;;19.70;17.80;;;12.10;72.60;;;10.43;66.81;96808.63;5035202;28;20458;-71
2022/04/23 06:52:29;;;;;;;19.63;17.53;;;11.90;72.60;;;10.35;67.48;96825.19;5021350;28;21137;-70
2022/04/23 06:54:56;;;;;;;18.50;16.70;;;11.70;73.00;;;10.29;67.83;96826.16;5022089;28;21049;-71
2022/04/23 06:57:24;;;;;;;16.93;15.20;;;11.50;73.30;;;10.98;66.76;96827.84;5027949;28;21235;-72
2022/04/23 06:59:51;;;;;;;20.20;15.30;;;11.90;73.50;;;11.23;65.28;96815.78;5024088;28;20474;-71
2022/04/23 07:02:19;;;;;;;17.00;15.50;;;12.20;72.50;;;11.45;63.90;96825.81;5023797;28;20514;-72
2022/04/23 07:04:46;;;;;;;14.00;12.60;;;12.50;71.40;;;11.96;61.04;96813.97;5025401;28;20455;-74
2022/04/23 07:07:14;;;;;;;12.23;10.93;;;12.90;69.60;;;12.16;59.43;96819.63;5024782;28;20865;-74
2022/04/23 07:09:41;;;;;;;10.90;9.87;;;13.10;67.90;;;12.15;59.54;96819.88;5020711;28;21194;-74
2022/04/23 07:12:10;;;;;;;11.57;10.37;;;13.30;67.30;;;12.28;59.36;96818.66;5018405;28;20451;-74
2022/04/23 07:14:38;;;;;;;11.37;10.27;;;13.40;67.00;;;12.54;58.36;96813.47;5031730;28;20508;-73
2022/04/23 07:17:05;;;;;;;10.83;9.73;;;13.50;66.60;;;12.41;58.37;96817.41;5047672;28;20452;-72
2022/04/23 07:19:32;;;;;;;12.27;11.07;;;13.60;65.70;;;12.10;58.67;96820.66;5034603;28;20466;-73
2022/04/23 07:21:59;;;;;;;12.23;11.03;;;13.40;65.40;;;11.88;59.92;96810.63;5026368;28;20452;-73
2022/04/23 07:24:27;;;;;;;12.20;10.90;;;13.20;65.80;;;11.55;61.33;96825.13;5019513;28;21471;-75
2022/04/23 07:26:55;;;;;;;11.40;10.30;;;12.80;66.40;;;11.62;60.65;96820.34;5027979;28;20986;-74
2022/04/23 07:29:22;;;;;;;12.77;11.30;;;12.80;66.60;;;11.89;60.41;96831.19;5023031;28;21147;-75
2022/04/23 07:31:49;;;;;;;14.70;13.23;;;13.00;66.70;;;11.79;61.06;96827.56;5021504;28;20458;-74
2022/04/23 07:39:46;;;;;;;16.97;15.27;;;13.00;67.10;;;11.59;62.16;96834.38;5035331;28;20459;-73
2022/04/23 07:42:13;;;;;;;18.10;15.97;;;12.80;67.30;;;11.34;63.34;96833.78;5022168;28;20461;-74
2022/04/23 07:44:40;;;;;;;17.57;15.77;;;12.60;68.00;;;11.74;62.64;96836.44;5020546;28;20471;-72
2022/04/23 07:47:08;;;;;;;17.47;15.60;;;12.80;68.00;;;11.81;61.64;96841.66;5024870;28;20462;-72
2022/04/23 07:49:35;;;;;;;16.93;15.33;;;12.90;67.60;;;11.54;62.45;96835.13;5024360;28;20978;-72
2022/04/23 07:52:02;;;;;;;18.60;16.70;;;12.80;67.30;;;11.64;62.09;96830.91;5023818;28;20447;-72
2022/04/23 07:54:29;;;;;;;16.77;15.00;;;12.80;67.60;;;12.16;61.13;96830.44;5023970;28;20489;-74
2022/04/23 07:56:57;;;;;;;18.43;16.57;;;13.10;67.70;;;12.07;60.95;96829.28;5015877;28;20456;-73
2022/04/23 07:59:24;;;;;;;18.97;17.07;;;13.30;67.10;;;12.41;59.97;96831.78;5017239;28;20478;-73
2022/04/23 08:01:51;;;;;;;18.50;16.50;;;13.50;66.70;;;12.37;60.62;96827.97;5025539;28;20544;-72
2022/04/23 08:04:18;;;;;;;19.47;16.43;;;13.50;66.70;;;12.28;60.38;96829.47;5015458;28;20506;-73
2022/04/23 08:06:46;;;;;;;16.97;15.23;;;13.50;66.60;;;12.08;60.62;96824.66;5018728;28;20460;-73
2022/04/23 08:09:13;;;;;;;17.70;15.97;;;13.30;66.40;;;12.06;60.60;96826.81;5017939;28;20899;-74
2022/04/23 08:11:40;;;;;;;18.80;16.90;;;13.30;66.60;;;12.24;60.27;96829.16;5019462;28;20474;-72
2022/04/23 08:14:08;;;;;;;16.97;15.27;;;13.40;66.20;;;12.33;59.99;96821.41;5021110;28;20551;-73
2022/04/23 08:16:35;;;;;;;16.30;14.60;;;13.50;66.00;;;12.01;60.21;96814.88;5021824;28;20798;-72
2022/04/23 08:19:03;;;;;;;16.87;15.03;;;13.20;65.60;;;12.06;59.70;96822.25;5024388;28;20478;-73
2022/04/23 08:21:30;;;;;;;17.17;15.37;;;13.20;65.60;;;11.94;60.19;96827.75;5025270;28;20469;-71
2022/04/23 08:23:57;;;;;;;18.20;16.30;;;13.20;65.50;;;12.04;60.82;96816.22;5018461;28;20520;-73
2022/04/23 08:26:24;;;;;;;19.93;17.93;;;13.20;66.20;;;12.01;60.63;96822.13;5023792;28;20460;-72
2022/04/23 08:31:37;;;;;;;22.30;19.40;;;13.10;66.50;;;11.64;62.45;96811.97;5036630;28;20456;-73
2022/04/23 08:34:03;;;;;;;21.60;19.47;;;12.90;67.10;;;11.25;63.51;96813.63;5015868;28;20459;-81
2022/04/23 08:36:35;;;;;;;22.33;19.97;;;12.60;67.50;;;11.39;63.74;96824.09;5017563;28;20471;-80
2022/04/23 08:39:04;;;;;;;23.17;20.80;;;12.50;68.10;;;11.58;63.25;96811.91;5020956;28;20515;-83
2022/04/23 08:41:32;;;;;;;24.37;21.87;;;12.70;68.00;;;11.89;62.69;96823.06;5026941;28;20450;-82
2022/04/23 08:44:05;;;;;;;25.63;22.83;;;12.90;68.00;;;11.64;62.82;96815.47;5023053;28;20560;-81
2022/04/23 08:46:35;;;;;;;27.37;24.47;;;12.80;67.50;;;11.13;64.42;96829.13;5018435;28;20955;-81
2022/04/23 08:49:13;;;;;;;28.60;24.43;;;12.50;68.00;;;11.29;64.07;96824.78;5030684;28;21248;-79
2022/04/23 08:51:45;;;;;;;25.83;21.93;;;12.50;68.50;;;11.36;64.26;96824.59;5029718;28;20998;-80
2022/04/23 08:54:14;;;;;;;26.13;23.33;;;12.40;68.80;;;11.18;64.22;96821.13;5037815;28;20457;-78
2022/04/23 08:56:44;;;;;;;27.73;24.93;;;12.40;68.50;;;11.11;64.42;96817.75;5023609;28;21008;-81
2022/04/23 08:59:14;;;;;;;30.37;25.93;;;12.30;68.60;;;10.86;65.09;96829.84;5022826;28;20590;-82
2022/04/23 09:01:44;;;;;;;28.17;25.10;;;12.10;68.60;;;10.92;65.20;96820.72;5027048;28;20457;-80
2022/04/23 09:04:14;;;;;;;31.67;25.27;;;12.10;69.00;;;11.07;64.30;96811.22;5018026;28;20542;-80
2022/04/23 09:06:43;;;;;;;27.60;24.70;;;12.20;68.70;;;11.28;63.07;96817.72;5022165;28;20956;-82
2022/04/23 09:09:15;;;;;;;27.50;24.00;;;12.40;68.20;;;11.38;63.19;96823.28;5021483;28;20447;-75
2022/04/23 09:11:46;;;;;;;27.83;24.83;;;12.50;68.10;;;11.74;61.60;96820.19;5023878;28;20443;-85
2022/04/23 09:14:27;;;;;;;30.43;26.73;;;12.80;67.40;;;11.79;61.44;96820.28;5022798;28;20479;-82
2022/04/23 09:25:19;;;;;;;24.93;22.33;;;13.30;65.90;;;11.60;61.28;96826.00;5015738;28;20472;-80
2022/04/23 09:27:46;;;;;;;30.00;23.70;;;12.90;65.90;;;11.55;61.98;96828.63;5021400;28;21321;-83
2022/04/23 09:30:14;;;;;;;26.60;23.80;;;12.80;66.40;;;11.87;60.62;96825.22;5022761;28;20965;-82
2022/04/23 09:33:00;;;;;;;24.07;21.30;;;12.90;66.20;;;11.79;61.25;96828.41;5022445;28;20472;-81
2022/04/23 09:35:27;;;;;;;26.33;23.07;;;12.90;66.30;;;12.06;60.49;96827.66;5021125;28;20561;-84
2022/04/23 09:38:13;;;;;;;25.57;22.40;;;13.10;66.10;;;12.25;59.60;96819.16;5024095;28;20554;-82
2022/04/23 09:40:40;;;;;;;23.87;21.37;;;13.30;65.60;;;12.07;59.81;96821.16;5018733;28;20458;-80
2022/04/23 09:43:09;;;;;;;23.50;21.20;;;13.20;65.40;;;12.26;59.66;96816.19;5025473;28;20481;-84
2022/04/23 09:45:41;;;;;;;24.17;21.57;;;13.30;65.30;;;12.21;59.68;96818.03;5022486;28;20457;-80
2022/04/23 09:48:18;;;;;;;23.53;19.50;;;13.40;65.50;;;12.19;59.33;96815.59;5039211;28;20464;-70
2022/04/23 09:50:47;;;;;;;22.00;19.67;;;13.30;65.00;;;11.96;59.13;96805.84;5023123;28;20546;-74
2022/04/23 09:53:16;;;;;;;24.80;21.20;;;13.20;64.40;;;11.78;60.06;96824.06;5025241;28;20448;-76
2022/04/23 09:55:45;;;;;;;21.97;19.67;;;13.00;64.90;;;11.75;60.25;96828.06;5025022;28;20456;-73
2022/04/23 09:58:13;;;;;;;22.03;19.80;;;12.90;65.00;;;11.73;60.13;96832.09;5026025;28;21119;-72
2022/04/23 10:00:42;;;;;;;24.53;20.27;;;12.90;65.00;;;11.64;60.72;96828.22;5022987;28;20973;-74
2022/04/23 10:03:10;;;;;;;23.73;21.33;;;12.80;65.10;;;11.54;60.80;96832.41;5026474;28;20605;-76
2022/04/23 10:05:41;;;;;;;23.83;20.93;;;12.70;65.30;;;11.64;60.78;96830.91;5030965;28;20451;-78
2022/04/23 10:08:14;;;;;;;22.33;20.00;;;12.80;65.30;;;11.59;60.37;96827.06;5019629;28;21118;-72
2022/04/23 10:10:45;;;;;;;21.63;19.07;;;12.80;65.20;;;11.71;60.77;96839.66;5022685;28;20451;-82
2022/04/23 10:13:13;;;;;;;22.50;19.27;;;12.80;65.20;;;11.83;60.11;96834.09;5022285;28;20480;-72
2022/04/23 10:15:47;;;;;;;21.77;19.13;;;12.90;65.10;;;11.86;59.92;96831.72;5017970;28;20443;-72
2022/04/23 10:18:15;;;;;;;20.30;18.20;;;12.90;64.90;;;11.68;60.11;96816.63;5031822;28;20452;-73
2022/04/23 10:20:53;;;;;;;21.53;19.43;;;13.00;65.10;;;11.81;59.66;96823.53;5030695;28;20489;-71
2022/04/23 10:23:31;;;;;;;21.50;19.30;;;13.00;64.70;;;11.99;59.47;96816.16;5027901;28;20460;-74
2022/04/23 10:26:18;;;;;;;21.30;18.60;;;13.10;64.80;;;12.19;58.63;96810.97;5025324;28;20816;-75
2022/04/23 10:28:46;;;;;;;19.93;17.87;;;13.30;64.30;;;12.57;57.74;96810.25;5026539;28;20453;-74
2022/04/23 10:31:15;;;;;;;20.40;18.40;;;13.60;63.70;;;12.69;57.35;96824.44;5035368;28;20452;-73
2022/04/23 10:33:46;;;;;;;20.70;18.10;;;13.80;63.40;;;12.68;57.22;96817.41;5038635;28;20446;-74